createdAt,value
2022-11-16T00:03:26.361Z,962.43
2022-11-16T00:09:57.232Z,962.42
2022-11-16T00:16:32.472Z,962.38
2022-11-16T00:23:11.843Z,962.3
2022-11-16T00:29:49.862Z,962.34
2022-11-16T00:36:17.968Z,962.4
2022-11-16T00:42:50.012Z,962.37
2022-11-16T00:49:13.188Z,962.34
2022-11-16T00:55:37.354Z,962.42
2022-11-16T01:02:11.813Z,962.44
2022-11-16T01:08:41.979Z,962.51
2022-11-16T01:15:14.890Z,962.57
2022-11-16T01:21:46.573Z,962.55
2022-11-16T01:28:23.984Z,962.57
2022-11-16T01:34:47.993Z,962.62
2022-11-16T01:41:20.399Z,962.58
2022-11-16T01:48:13.287Z,962.53
2022-11-16T01:54:55.270Z,962.44
2022-11-16T02:01:42.451Z,962.4
2022-11-16T02:08:19.437Z,962.24
2022-11-16T02:15:27.762Z,962.35
2022-11-16T02:22:43.719Z,962.37
2022-11-16T02:29:48.111Z,962.36
2022-11-16T02:37:01.102Z,962.22
2022-11-16T02:44:10.636Z,962.34
2022-11-16T02:51:16.721Z,962.39
2022-11-16T02:58:02.455Z,962.27
2022-11-16T03:05:16.717Z,962.4
2022-11-16T03:12:28.908Z,962.57
2022-11-16T03:19:27.690Z,962.48
2022-11-16T03:26:29.985Z,962.45
2022-11-16T03:33:42.457Z,962.54
2022-11-16T03:40:42.468Z,962.64
2022-11-16T03:47:20.824Z,962.7
2022-11-16T03:53:49.334Z,962.71
2022-11-16T04:00:26.938Z,962.73
2022-11-16T04:07:08.255Z,962.7
2022-11-16T04:14:08.879Z,962.77
2022-11-16T04:20:58.817Z,962.8
2022-11-16T04:27:51.720Z,962.85
2022-11-16T04:34:23.455Z,962.99
2022-11-16T04:40:50.635Z,963.01
2022-11-16T04:47:28.060Z,963.06
2022-11-16T04:53:54.802Z,963
2022-11-16T05:00:22.909Z,963.02
2022-11-16T05:06:55.187Z,962.91
2022-11-16T05:13:27.909Z,962.97
2022-11-16T05:20:04.453Z,963
2022-11-16T05:26:41.159Z,963.06
2022-11-16T05:33:10.547Z,963.13
2022-11-16T05:39:45.961Z,963.14
2022-11-16T05:46:15.272Z,963.19
2022-11-16T05:52:57.731Z,963.24
2022-11-16T05:59:34.869Z,963.19
2022-11-16T06:06:18.592Z,963.09
2022-11-16T06:13:00.360Z,963.2
2022-11-16T06:19:39.716Z,963.34
2022-11-16T06:26:08.464Z,963.38
2022-11-16T06:32:40.179Z,963.54
2022-11-16T06:39:07.815Z,963.66
2022-11-16T06:45:39.306Z,963.69
2022-11-16T06:52:16.429Z,963.68
2022-11-16T06:58:47.596Z,963.78
2022-11-16T07:05:19.408Z,963.75
2022-11-16T07:12:01.025Z,963.83
2022-11-16T07:18:28.653Z,963.94
2022-11-16T07:25:13.875Z,963.97
2022-11-16T07:31:48.759Z,964.04
2022-11-16T07:38:25.764Z,963.96
2022-11-16T07:45:04.801Z,964.05
2022-11-16T07:52:00.529Z,964.08
2022-11-16T07:58:42.336Z,964.11
2022-11-16T08:05:31.019Z,964.16
2022-11-16T08:12:10.536Z,964.12
2022-11-16T08:18:47.944Z,964.13
2022-11-16T08:25:16.544Z,964.25
2022-11-16T08:32:06.604Z,964.19
2022-11-16T08:38:45.258Z,964.17
2022-11-16T08:45:16.116Z,964.23
2022-11-16T08:51:54.636Z,964.38
2022-11-16T08:58:35.941Z,964.39
2022-11-16T09:05:15.304Z,964.47
2022-11-16T09:12:00.830Z,964.56
2022-11-16T09:18:39.591Z,964.57
2022-11-16T09:25:29.977Z,964.52
2022-11-16T09:32:56.441Z,964.41
2022-11-16T09:47:03.806Z,964.49
2022-11-16T09:54:13.063Z,964.41
2022-11-16T10:01:18.862Z,964.4
2022-11-16T10:08:48.145Z,964.39
2022-11-16T10:16:04.496Z,964.39
2022-11-16T10:23:23.366Z,964.3
2022-11-16T10:30:35.041Z,964.19
2022-11-16T10:37:51.027Z,964.12
2022-11-16T10:45:07.487Z,964.04
2022-11-16T10:52:19.949Z,963.98
2022-11-16T10:59:04.095Z,964
2022-11-16T11:06:00.803Z,963.88
2022-11-16T11:13:01.036Z,963.74
2022-11-16T11:19:55.777Z,963.67
2022-11-16T11:27:04.940Z,963.67
2022-11-16T11:33:58.782Z,963.51
2022-11-16T11:40:52.758Z,963.53
2022-11-16T11:48:05.782Z,963.47
2022-11-16T11:55:22.237Z,963.43
2022-11-16T12:02:24.016Z,963.3
2022-11-16T12:09:30.729Z,963.24
2022-11-16T12:16:44.614Z,963.11
2022-11-16T12:23:54.661Z,963.05
2022-11-16T12:31:15.661Z,963.01
2022-11-16T12:38:29.941Z,962.85
2022-11-16T12:45:46.000Z,962.86
2022-11-16T12:52:51.601Z,962.85
2022-11-16T13:00:16.417Z,962.84
2022-11-16T13:07:33.146Z,962.82
2022-11-16T13:14:42.061Z,962.75
2022-11-16T13:21:49.124Z,962.77
2022-11-16T13:28:57.724Z,962.68
2022-11-16T13:36:06.371Z,962.62
2022-11-16T13:43:01.607Z,962.59
2022-11-16T13:49:59.123Z,962.56
2022-11-16T13:57:52.495Z,962.39
2022-11-16T14:05:35.909Z,962.42
2022-11-16T14:13:33.379Z,962.34
2022-11-16T14:22:16.033Z,962.3
2022-11-16T14:30:23.961Z,962.31
2022-11-16T14:38:05.406Z,962.14
2022-11-16T14:45:59.607Z,962.1
2022-11-16T14:53:50.093Z,962.2
2022-11-16T15:01:48.430Z,962.11
2022-11-16T15:09:20.370Z,962.05
2022-11-16T15:17:06.901Z,961.94
2022-11-16T15:24:40.025Z,961.82
2022-11-16T15:32:46.826Z,961.74
2022-11-16T15:40:28.780Z,961.74
2022-11-16T15:48:10.378Z,961.7
2022-11-16T15:56:10.925Z,961.54
2022-11-16T16:03:56.335Z,961.44
2022-11-16T16:11:51.614Z,961.36
2022-11-16T16:19:30.901Z,961.36
2022-11-16T16:27:12.888Z,961.33
2022-11-16T16:34:43.444Z,961.27
2022-11-16T16:42:06.341Z,961.24
2022-11-16T16:49:38.016Z,961.18
2022-11-16T16:57:15.026Z,961.05
2022-11-16T17:04:59.404Z,960.93
2022-11-16T17:12:16.075Z,960.83
2022-11-16T17:19:52.669Z,960.85
2022-11-16T17:27:21.391Z,960.79
2022-11-16T17:35:09.151Z,960.72
2022-11-16T17:42:35.213Z,960.54
2022-11-16T17:50:16.822Z,960.42
2022-11-16T17:57:47.674Z,960.41
2022-11-16T18:05:21.363Z,960.32
2022-11-16T18:13:23.882Z,960.27
2022-11-16T18:20:53.805Z,960.31
2022-11-16T18:28:21.843Z,960.38
2022-11-16T18:35:43.797Z,960.39
2022-11-16T18:43:27.828Z,960.28
2022-11-16T18:50:54.401Z,960.36
2022-11-16T19:06:03.002Z,960.51
2022-11-16T19:13:40.240Z,960.46
2022-11-16T19:20:59.982Z,960.35
2022-11-16T19:28:29.327Z,960.22
2022-11-16T19:35:46.944Z,960.12
2022-11-16T19:43:11.668Z,960.06
2022-11-16T19:50:45.495Z,960.03
2022-11-16T19:58:20.392Z,959.9
2022-11-16T20:05:41.508Z,959.88
2022-11-16T20:13:18.441Z,959.8
2022-11-16T20:20:37.615Z,959.69
2022-11-16T20:28:02.425Z,959.59
2022-11-16T20:35:42.109Z,959.43
2022-11-16T20:42:58.159Z,959.37
2022-11-16T20:50:24.111Z,959.3
2022-11-16T20:58:23.507Z,959.27
2022-11-16T21:06:02.600Z,959.16
2022-11-16T21:13:40.336Z,959.17
2022-11-16T21:21:11.547Z,959.09
2022-11-16T21:28:29.969Z,959.06
2022-11-16T21:35:51.371Z,958.98
2022-11-16T21:43:07.555Z,958.89
2022-11-16T21:50:46.556Z,958.77
2022-11-16T21:57:56.912Z,958.72
2022-11-16T22:05:05.992Z,958.65
2022-11-16T22:12:31.443Z,958.55
2022-11-16T22:20:00.713Z,958.35
2022-11-16T22:27:28.048Z,958.25
2022-11-16T22:34:52.100Z,958.04
2022-11-16T22:42:13.245Z,957.98
2022-11-16T22:49:47.386Z,957.92
2022-11-16T22:57:15.011Z,957.81
2022-11-16T23:04:35.471Z,957.55
2022-11-16T23:11:54.584Z,957.48
2022-11-16T23:19:00.197Z,957.31
2022-11-16T23:25:38.183Z,957.22
2022-11-16T23:32:17.881Z,956.98
2022-11-16T23:39:07.120Z,956.74
2022-11-16T23:45:48.242Z,956.5
2022-11-16T23:52:24.647Z,956.29
2022-11-16T23:58:58.617Z,956.22
